createdAt,value
2022-10-14T00:00:48.370Z,99.90
2022-10-14T00:03:15.107Z,99.90
2022-10-14T00:05:42.504Z,99.90
2022-10-14T00:08:09.761Z,99.90
2022-10-14T00:10:40.201Z,99.90
2022-10-14T00:13:07.387Z,99.90
2022-10-14T00:15:39.861Z,99.90
2022-10-14T00:18:08.277Z,99.90
2022-10-14T00:20:35.773Z,99.90
2022-10-14T00:23:02.789Z,99.90
2022-10-14T00:25:29.655Z,99.90
2022-10-14T00:27:56.612Z,99.90
2022-10-14T00:30:23.494Z,99.90
2022-10-14T00:32:50.323Z,99.90
2022-10-14T00:35:17.231Z,99.90
2022-10-14T00:37:44.348Z,99.90
2022-10-14T00:40:11.588Z,99.90
2022-10-14T00:42:38.429Z,99.90
2022-10-14T00:45:16.015Z,99.90
2022-10-14T00:47:43.996Z,99.90
2022-10-14T00:50:13.563Z,99.90
2022-10-14T00:52:40.889Z,99.90
2022-10-14T00:55:16.081Z,99.90
2022-10-14T00:57:44.006Z,99.90
2022-10-14T01:00:14.624Z,99.90
2022-10-14T01:02:42.167Z,99.90
2022-10-14T01:05:12.123Z,99.90
2022-10-14T01:07:59.529Z,99.90
2022-10-14T01:10:26.324Z,99.90
2022-10-14T01:13:01.643Z,99.90
2022-10-14T01:15:49.341Z,99.90
2022-10-14T01:18:58.583Z,99.90
2022-10-14T01:21:44.694Z,98.80
2022-10-14T01:24:26.229Z,92.50
2022-10-14T01:27:18.093Z,85.80
2022-10-14T01:30:02.973Z,78.10
2022-10-14T01:32:36.233Z,75.60
2022-10-14T01:35:05.924Z,75.50
2022-10-14T01:37:36.802Z,75.50
2022-10-14T01:40:11.803Z,75.50
2022-10-14T01:42:40.825Z,75.40
2022-10-14T01:45:20.911Z,77.50
2022-10-14T01:47:50.202Z,85.50
2022-10-14T01:50:20.377Z,92.30
2022-10-14T01:53:09.649Z,96.50
2022-10-14T01:55:47.371Z,99.90
2022-10-14T01:58:17.651Z,99.90
2022-10-14T02:00:44.621Z,99.90
2022-10-14T02:03:14.778Z,99.90
2022-10-14T02:06:00.743Z,99.90
2022-10-14T02:08:30.382Z,99.90
2022-10-14T02:11:14.523Z,99.90
2022-10-14T02:14:09.130Z,99.90
2022-10-14T02:16:58.891Z,99.90
2022-10-14T02:19:46.647Z,99.90
2022-10-14T02:22:23.412Z,99.90
2022-10-14T02:24:54.248Z,99.90
2022-10-14T02:27:24.602Z,99.90
2022-10-14T02:29:54.508Z,99.90
2022-10-14T02:32:24.601Z,99.90
2022-10-14T02:34:54.631Z,99.90
2022-10-14T02:37:22.559Z,99.90
2022-10-14T02:39:59.053Z,99.90
2022-10-14T02:42:27.475Z,99.90
2022-10-14T02:44:59.415Z,99.90
2022-10-14T02:47:26.288Z,99.90
2022-10-14T02:49:53.760Z,99.90
2022-10-14T02:52:20.914Z,99.90
2022-10-14T02:54:47.933Z,99.90
2022-10-14T02:57:14.698Z,99.90
2022-10-14T02:59:41.483Z,99.90
2022-10-14T03:02:08.695Z,99.90
2022-10-14T03:04:36.183Z,99.90
2022-10-14T03:07:03.204Z,99.90
2022-10-14T03:09:30.214Z,99.90
2022-10-14T03:11:57.010Z,99.90
2022-10-14T03:14:23.837Z,99.90
2022-10-14T03:16:50.674Z,99.90
2022-10-14T03:19:17.431Z,99.90
2022-10-14T03:21:44.264Z,99.90
2022-10-14T03:24:11.131Z,99.90
2022-10-14T03:26:37.961Z,99.90
2022-10-14T03:29:04.756Z,99.90
2022-10-14T03:31:31.572Z,99.90
2022-10-14T03:33:58.476Z,99.90
2022-10-14T03:36:25.375Z,99.90
2022-10-14T03:38:52.182Z,99.90
2022-10-14T03:41:19.442Z,99.90
2022-10-14T03:43:46.367Z,99.90
2022-10-14T03:46:13.825Z,99.90
2022-10-14T03:48:40.746Z,99.90
2022-10-14T03:51:07.824Z,99.90
2022-10-14T03:53:34.669Z,99.90
2022-10-14T03:56:01.491Z,99.90
2022-10-14T03:58:28.268Z,99.90
2022-10-14T04:00:55.035Z,99.90
2022-10-14T04:03:21.885Z,99.90
2022-10-14T04:05:48.769Z,99.90
2022-10-14T04:08:15.878Z,99.90
2022-10-14T04:10:42.735Z,99.90
2022-10-14T04:13:09.829Z,99.90
2022-10-14T04:15:36.992Z,99.90
2022-10-14T04:18:03.839Z,99.90
2022-10-14T04:20:30.683Z,99.90
2022-10-14T04:22:59.942Z,99.90
2022-10-14T04:25:27.222Z,99.90
2022-10-14T04:27:54.080Z,99.90
2022-10-14T04:30:20.963Z,99.90
2022-10-14T04:32:47.712Z,99.90
2022-10-14T04:35:14.682Z,99.90
2022-10-14T04:37:41.511Z,99.90
2022-10-14T04:40:08.627Z,99.90
2022-10-14T04:42:35.399Z,99.90
2022-10-14T04:45:02.177Z,99.90
2022-10-14T04:47:28.910Z,99.90
2022-10-14T04:49:55.661Z,99.90
2022-10-14T04:52:22.782Z,99.90
2022-10-14T04:54:49.820Z,99.90
2022-10-14T04:57:16.575Z,99.90
2022-10-14T04:59:43.409Z,99.90
2022-10-14T05:02:10.416Z,99.90
2022-10-14T05:04:37.251Z,99.90
2022-10-14T05:07:03.994Z,99.90
2022-10-14T05:09:30.793Z,99.90
2022-10-14T05:11:57.637Z,99.90
2022-10-14T05:14:24.406Z,99.90
2022-10-14T05:16:51.666Z,99.90
2022-10-14T05:19:18.512Z,99.90
2022-10-14T05:21:45.288Z,99.90
2022-10-14T05:24:12.086Z,99.90
2022-10-14T05:26:38.831Z,99.90
2022-10-14T05:29:05.702Z,99.90
2022-10-14T05:31:32.449Z,99.90
2022-10-14T05:33:59.322Z,99.90
2022-10-14T05:36:26.142Z,99.90
2022-10-14T05:38:55.697Z,99.90
2022-10-14T05:41:22.491Z,99.90
2022-10-14T05:43:49.765Z,99.90
2022-10-14T05:46:16.517Z,99.90
2022-10-14T05:48:43.756Z,99.90
2022-10-14T05:51:10.586Z,99.90
2022-10-14T05:53:39.314Z,99.90
2022-10-14T05:56:08.187Z,99.90
2022-10-14T05:58:35.139Z,99.90
2022-10-14T06:01:07.690Z,99.90
2022-10-14T06:03:34.636Z,99.90
2022-10-14T06:06:01.741Z,99.90
2022-10-14T06:08:28.617Z,99.90
2022-10-14T06:10:55.431Z,99.90
2022-10-14T06:13:22.625Z,99.90
2022-10-14T06:15:49.454Z,99.90
2022-10-14T06:18:16.280Z,99.90
2022-10-14T06:20:43.020Z,99.90
2022-10-14T06:23:09.815Z,99.90
2022-10-14T06:25:36.785Z,99.90
2022-10-14T06:28:05.189Z,99.90
2022-10-14T06:30:32.890Z,99.90
2022-10-14T06:32:59.679Z,99.90
2022-10-14T06:35:26.503Z,99.90
2022-10-14T06:37:53.397Z,99.90
2022-10-14T06:40:20.675Z,99.90
2022-10-14T06:42:47.451Z,99.90
2022-10-14T06:45:15.536Z,99.90
2022-10-14T06:47:42.389Z,99.90
2022-10-14T06:50:09.231Z,99.90
2022-10-14T06:52:36.039Z,99.90
2022-10-14T06:55:02.955Z,99.90
2022-10-14T06:57:29.826Z,99.90
2022-10-14T06:59:56.810Z,99.90
2022-10-14T07:02:23.814Z,99.90
2022-10-14T07:04:51.138Z,99.90
2022-10-14T07:07:18.009Z,99.90
2022-10-14T07:09:44.814Z,68.80
2022-10-14T07:12:11.542Z,30.10
2022-10-14T07:14:38.337Z,10.90
2022-10-14T07:17:07.570Z,1.00
2022-10-14T07:19:34.639Z,1.00
2022-10-14T07:22:01.557Z,1.00
2022-10-14T07:24:28.376Z,1.00
2022-10-14T07:26:55.196Z,1.00
2022-10-14T07:29:22.053Z,1.00
2022-10-14T07:31:48.807Z,1.00
2022-10-14T07:34:15.823Z,1.00
2022-10-14T07:36:42.649Z,1.00
2022-10-14T07:39:09.465Z,1.00
2022-10-14T07:41:36.411Z,1.00
2022-10-14T07:44:08.562Z,1.00
2022-10-14T07:46:38.163Z,1.00
2022-10-14T07:49:08.952Z,1.00
2022-10-14T07:51:36.391Z,1.00
2022-10-14T07:54:05.801Z,1.00
2022-10-14T07:56:34.581Z,1.00
2022-10-14T07:59:01.451Z,1.00
2022-10-14T08:01:28.358Z,1.00
2022-10-14T08:03:55.213Z,1.00
2022-10-14T08:06:22.505Z,1.00
2022-10-14T08:08:49.603Z,1.00
2022-10-14T08:11:26.046Z,1.00
2022-10-14T08:13:53.662Z,1.00
2022-10-14T08:16:27.017Z,1.00
2022-10-14T08:18:56.964Z,1.00
2022-10-14T08:21:24.431Z,1.00
2022-10-14T08:23:51.935Z,1.00
2022-10-14T08:26:30.736Z,1.00
2022-10-14T08:28:59.825Z,1.00
2022-10-14T08:31:26.947Z,1.00
2022-10-14T08:33:53.838Z,1.00
2022-10-14T08:36:21.518Z,1.00
2022-10-14T08:38:49.116Z,1.00
2022-10-14T08:41:45.650Z,1.00
2022-10-14T08:44:25.442Z,1.00
2022-10-14T08:46:56.617Z,1.00
2022-10-14T08:49:46.344Z,1.00
2022-10-14T08:52:19.026Z,1.00
2022-10-14T08:54:49.634Z,1.00
2022-10-14T08:57:20.292Z,1.00
2022-10-14T08:59:47.757Z,1.00
2022-10-14T09:02:47.625Z,1.00
2022-10-14T09:05:21.443Z,1.00
2022-10-14T09:07:53.847Z,1.00
2022-10-14T09:10:29.165Z,1.00
2022-10-14T09:13:00.036Z,1.00
2022-10-14T09:15:34.536Z,1.00
2022-10-14T09:18:10.791Z,1.00
2022-10-14T09:20:37.651Z,1.00
2022-10-14T09:23:04.414Z,1.00
2022-10-14T09:25:34.961Z,1.00
2022-10-14T09:28:02.241Z,1.00
2022-10-14T09:30:33.529Z,1.00
2022-10-14T09:33:00.898Z,1.00
2022-10-14T09:35:34.504Z,1.00
2022-10-14T09:38:01.472Z,1.00
2022-10-14T09:40:33.622Z,1.00
2022-10-14T09:43:10.101Z,1.00
2022-10-14T09:45:48.837Z,1.00
2022-10-14T09:48:25.812Z,1.00
2022-10-14T09:50:56.123Z,1.00
2022-10-14T09:53:41.091Z,1.00
2022-10-14T09:56:09.516Z,1.00
2022-10-14T09:58:44.755Z,1.00
2022-10-14T10:01:16.874Z,1.00
2022-10-14T10:03:45.973Z,1.00
2022-10-14T10:06:15.160Z,1.00
2022-10-14T10:08:54.019Z,99.90
2022-10-14T10:11:37.316Z,99.90
2022-10-14T10:14:22.756Z,99.90
2022-10-14T10:19:32.952Z,99.90
2022-10-14T10:22:36.676Z,99.90
2022-10-14T10:25:06.590Z,99.90
2022-10-14T10:27:39.737Z,99.90
2022-10-14T10:30:18.753Z,99.90
2022-10-14T10:33:17.986Z,99.90
2022-10-14T10:36:22.973Z,99.90
2022-10-14T10:39:04.279Z,99.90
2022-10-14T10:42:00.326Z,99.90
2022-10-14T10:44:32.988Z,99.90
2022-10-14T10:47:10.255Z,99.90
2022-10-14T10:50:08.624Z,99.90
2022-10-14T10:52:47.755Z,99.90
2022-10-14T10:55:32.695Z,99.90
2022-10-14T10:58:32.490Z,99.90
2022-10-14T11:01:36.523Z,99.90
2022-10-14T11:04:22.272Z,99.90
2022-10-14T11:07:35.371Z,99.90
2022-10-14T11:10:31.411Z,99.90
2022-10-14T11:13:06.412Z,99.90
2022-10-14T11:15:55.489Z,99.90
2022-10-14T11:18:45.155Z,99.90
2022-10-14T11:21:39.465Z,99.90
2022-10-14T11:24:19.957Z,99.90
2022-10-14T11:27:13.785Z,94.50
2022-10-14T11:30:17.913Z,99.40
2022-10-14T11:33:10.800Z,99.90
2022-10-14T11:35:58.276Z,99.90
2022-10-14T11:38:48.351Z,99.90
2022-10-14T11:41:36.750Z,99.90
2022-10-14T11:44:26.793Z,91.60
2022-10-14T11:46:58.474Z,99.90
2022-10-14T11:49:33.000Z,99.90
2022-10-14T11:52:22.296Z,99.90
2022-10-14T11:55:13.789Z,99.90
2022-10-14T11:57:47.042Z,99.90
2022-10-14T12:00:34.301Z,99.90
2022-10-14T12:03:02.905Z,95.80
2022-10-14T12:05:39.091Z,97.20
2022-10-14T12:08:46.105Z,90.60
2022-10-14T12:11:23.567Z,74.00
2022-10-14T12:13:55.087Z,57.50
2022-10-14T12:16:24.249Z,64.40
2022-10-14T12:18:55.953Z,43.30
2022-10-14T12:21:28.010Z,38.10
2022-10-14T12:24:00.525Z,26.60
2022-10-14T12:26:47.785Z,25.80
2022-10-14T12:29:18.578Z,25.80
2022-10-14T12:31:51.664Z,10.50
2022-10-14T12:34:29.077Z,4.10
2022-10-14T12:36:55.886Z,8.50
2022-10-14T12:39:30.547Z,25.80
2022-10-14T12:42:09.955Z,11.90
2022-10-14T12:44:55.563Z,1.00
2022-10-14T12:47:31.939Z,1.00
2022-10-14T12:50:04.252Z,1.00
2022-10-14T12:52:37.468Z,1.00
2022-10-14T12:55:17.584Z,1.00
2022-10-14T12:57:46.846Z,1.00
2022-10-14T13:00:22.855Z,1.00
2022-10-14T13:02:53.331Z,1.00
2022-10-14T13:05:26.215Z,1.00
2022-10-14T13:08:20.863Z,1.00
2022-10-14T13:10:50.257Z,1.00
2022-10-14T13:13:48.018Z,1.00
2022-10-14T13:16:20.977Z,1.00
2022-10-14T13:18:50.693Z,1.00
2022-10-14T13:21:40.526Z,1.00
2022-10-14T13:24:12.824Z,1.00
2022-10-14T13:26:42.698Z,1.00
2022-10-14T13:29:20.720Z,1.00
2022-10-14T13:32:15.966Z,1.00
2022-10-14T13:35:13.029Z,1.00
2022-10-14T13:37:46.381Z,1.00
2022-10-14T13:42:54.911Z,1.00
2022-10-14T13:45:28.205Z,1.00
2022-10-14T13:47:55.159Z,1.00
2022-10-14T13:50:32.799Z,1.00
2022-10-14T13:53:12.718Z,1.00
2022-10-14T13:55:51.708Z,1.00
2022-10-14T13:58:25.358Z,1.00
2022-10-14T14:01:04.311Z,1.00
2022-10-14T14:03:41.603Z,1.00
2022-10-14T14:06:14.637Z,1.00
2022-10-14T14:09:03.170Z,1.00
2022-10-14T14:11:33.479Z,1.00
2022-10-14T14:14:08.151Z,1.00
2022-10-14T14:16:53.137Z,1.00
2022-10-14T14:19:28.262Z,1.00
2022-10-14T14:22:13.795Z,1.00
2022-10-14T14:24:40.800Z,1.00
2022-10-14T14:27:13.950Z,1.00
2022-10-14T14:29:43.960Z,1.00
2022-10-14T14:32:25.549Z,1.00
2022-10-14T14:37:54.617Z,1.00
2022-10-14T14:40:23.155Z,7.10
2022-10-14T14:42:53.134Z,1.00
2022-10-14T14:45:21.712Z,1.00
2022-10-14T14:47:51.415Z,1.00
2022-10-14T14:50:31.900Z,1.40
2022-10-14T14:53:10.966Z,1.00
2022-10-14T14:56:10.435Z,1.00
2022-10-14T14:58:49.302Z,1.60
2022-10-14T15:01:27.937Z,17.70
2022-10-14T15:04:12.685Z,24.90
2022-10-14T15:06:51.639Z,25.00
2022-10-14T15:09:26.615Z,24.00
2022-10-14T15:11:57.734Z,9.00
2022-10-14T15:14:51.680Z,24.90
2022-10-14T15:17:34.386Z,13.80
2022-10-14T15:20:04.282Z,14.60
2022-10-14T15:22:38.918Z,15.20
2022-10-14T15:25:05.683Z,16.80
2022-10-14T15:27:35.451Z,23.60
2022-10-14T15:30:23.253Z,24.70
2022-10-14T15:32:51.681Z,24.70
2022-10-14T15:35:20.942Z,24.60
2022-10-14T15:37:49.503Z,41.00
2022-10-14T15:40:22.251Z,33.00
2022-10-14T15:42:49.994Z,53.70
2022-10-14T15:45:17.244Z,81.70
2022-10-14T15:47:44.399Z,82.30
2022-10-14T15:50:23.290Z,95.00
2022-10-14T15:52:53.253Z,99.90
2022-10-14T15:55:30.025Z,99.90
2022-10-14T15:57:57.257Z,99.90
2022-10-14T16:00:25.011Z,99.90
2022-10-14T16:02:55.227Z,99.90
2022-10-14T16:05:22.496Z,99.90
2022-10-14T16:07:49.707Z,99.90
2022-10-14T16:10:19.020Z,99.90
2022-10-14T16:12:46.307Z,99.90
2022-10-14T16:15:28.163Z,99.90
2022-10-14T16:17:55.164Z,99.90
2022-10-14T16:20:22.521Z,99.90
2022-10-14T16:22:50.090Z,99.90
2022-10-14T16:25:28.858Z,99.90
2022-10-14T16:27:55.964Z,99.90
2022-10-14T16:30:22.869Z,99.90
2022-10-14T16:32:51.104Z,99.90
2022-10-14T16:35:18.131Z,99.90
2022-10-14T16:37:45.113Z,99.90
2022-10-14T16:40:12.578Z,99.90
2022-10-14T16:42:39.435Z,99.90
2022-10-14T16:45:06.776Z,99.90
2022-10-14T16:47:33.541Z,99.90
2022-10-14T16:50:00.630Z,99.90
2022-10-14T16:52:27.589Z,99.90
2022-10-14T16:54:54.510Z,99.90
2022-10-14T16:57:21.465Z,99.90
2022-10-14T16:59:48.241Z,99.90
2022-10-14T17:02:16.452Z,99.90
2022-10-14T17:04:46.312Z,99.90
2022-10-14T17:07:14.846Z,99.90
2022-10-14T17:09:41.628Z,99.90
2022-10-14T17:12:12.895Z,99.90
2022-10-14T17:14:40.915Z,99.90
2022-10-14T17:17:07.710Z,99.90
2022-10-14T17:19:35.081Z,99.90
2022-10-14T17:22:03.384Z,99.90
2022-10-14T17:24:30.472Z,99.90
2022-10-14T17:26:57.625Z,99.90
2022-10-14T17:29:24.531Z,99.90
2022-10-14T17:31:51.375Z,99.90
2022-10-14T17:34:18.133Z,99.90
2022-10-14T17:36:44.907Z,99.90
2022-10-14T17:39:22.828Z,99.90
2022-10-14T17:41:56.178Z,99.90
2022-10-14T17:44:23.438Z,99.90
2022-10-14T17:46:50.243Z,99.90
2022-10-14T17:49:17.054Z,99.90
2022-10-14T17:51:44.874Z,99.90
2022-10-14T17:54:12.318Z,99.90
2022-10-14T17:56:39.977Z,99.90
2022-10-14T17:59:10.353Z,99.90
2022-10-14T18:02:01.085Z,99.90
2022-10-14T18:04:24.098Z,99.90
2022-10-14T18:06:50.954Z,99.90
2022-10-14T18:09:18.576Z,99.90
2022-10-14T18:12:07.703Z,99.90
2022-10-14T18:14:34.026Z,99.90
2022-10-14T18:17:01.019Z,99.90
2022-10-14T18:19:27.925Z,99.90
2022-10-14T18:21:54.738Z,99.90
2022-10-14T18:24:21.529Z,99.90
2022-10-14T18:26:51.825Z,99.90
2022-10-14T18:29:18.729Z,99.90
2022-10-14T18:31:45.637Z,99.90
2022-10-14T18:34:12.635Z,99.90
2022-10-14T18:36:39.486Z,99.90
2022-10-14T18:39:08.552Z,99.90
2022-10-14T18:41:37.250Z,99.90
2022-10-14T18:44:05.798Z,99.90
2022-10-14T18:46:35.773Z,99.90
2022-10-14T18:49:04.462Z,99.90
2022-10-14T18:51:37.125Z,99.90
2022-10-14T18:54:24.790Z,99.90
2022-10-14T18:56:52.030Z,99.90
2022-10-14T18:59:21.429Z,99.90
2022-10-14T19:01:53.264Z,99.90
2022-10-14T19:04:23.379Z,99.90
2022-10-14T19:06:50.603Z,99.90
2022-10-14T19:09:21.332Z,99.90
2022-10-14T19:11:52.131Z,99.90
2022-10-14T19:14:19.024Z,99.90
2022-10-14T19:16:47.526Z,99.90
2022-10-14T19:19:18.037Z,99.90
2022-10-14T19:21:49.898Z,99.90
2022-10-14T19:24:17.312Z,99.90
2022-10-14T19:26:45.940Z,99.90
2022-10-14T19:29:15.249Z,99.90
2022-10-14T19:31:43.656Z,99.90
2022-10-14T19:34:13.182Z,99.90
2022-10-14T19:36:40.359Z,99.90
2022-10-14T19:39:11.350Z,99.90
2022-10-14T19:41:42.766Z,99.90
2022-10-14T19:44:10.824Z,99.90
2022-10-14T19:46:38.211Z,99.90
2022-10-14T19:49:05.568Z,99.90
2022-10-14T19:51:34.273Z,99.90
2022-10-14T19:54:01.363Z,99.90
2022-10-14T19:56:28.929Z,99.90
2022-10-14T19:58:58.205Z,99.90
2022-10-14T20:01:27.857Z,99.90
2022-10-14T20:03:55.620Z,99.90
2022-10-14T20:06:23.094Z,99.90
2022-10-14T20:08:50.117Z,99.90
2022-10-14T20:11:21.192Z,99.90
2022-10-14T20:13:48.651Z,99.90
2022-10-14T20:16:15.729Z,99.90
2022-10-14T20:18:43.019Z,99.90
2022-10-14T20:21:12.382Z,99.90
2022-10-14T20:23:39.588Z,99.90
2022-10-14T20:26:13.535Z,99.90
2022-10-14T20:28:40.860Z,99.90
2022-10-14T20:31:16.102Z,99.90
2022-10-14T20:33:43.481Z,99.90
2022-10-14T20:36:21.257Z,99.90
2022-10-14T20:38:48.743Z,99.90
2022-10-14T20:41:26.993Z,99.90
2022-10-14T20:43:55.028Z,99.90
2022-10-14T20:46:23.243Z,99.90
2022-10-14T20:48:56.975Z,99.90
2022-10-14T20:51:24.393Z,99.90
2022-10-14T20:54:00.438Z,99.90
2022-10-14T20:56:31.360Z,99.90
2022-10-14T20:58:59.870Z,99.90
2022-10-14T21:01:28.458Z,99.90
2022-10-14T21:03:55.871Z,1.00
2022-10-14T21:06:24.451Z,1.00
2022-10-14T21:08:52.149Z,1.00
2022-10-14T21:11:21.903Z,1.00
2022-10-14T21:13:53.634Z,1.00
2022-10-14T21:16:27.852Z,1.00
2022-10-14T21:19:02.989Z,1.00
2022-10-14T21:21:36.902Z,1.00
2022-10-14T21:24:04.251Z,1.00
2022-10-14T21:26:31.144Z,1.00
2022-10-14T21:28:59.710Z,1.00
2022-10-14T21:31:26.460Z,1.00
2022-10-14T21:34:04.129Z,1.00
2022-10-14T21:36:32.005Z,1.00
2022-10-14T21:39:00.866Z,1.00
2022-10-14T21:41:28.445Z,1.00
2022-10-14T21:43:59.401Z,1.00
2022-10-14T21:46:26.892Z,1.00
2022-10-14T21:48:58.500Z,1.00
2022-10-14T21:51:27.356Z,1.00
2022-10-14T21:53:54.499Z,1.00
2022-10-14T21:56:22.258Z,1.00
2022-10-14T21:58:49.038Z,1.00
2022-10-14T22:01:17.065Z,1.00
2022-10-14T22:03:44.995Z,1.00
2022-10-14T22:06:15.387Z,1.00
2022-10-14T22:08:50.609Z,1.00
2022-10-14T22:11:23.379Z,1.00
2022-10-14T22:13:51.250Z,1.00
2022-10-14T22:16:18.856Z,1.00
2022-10-14T22:18:47.264Z,1.00
2022-10-14T22:21:16.344Z,1.00
2022-10-14T22:23:44.057Z,1.00
2022-10-14T22:26:15.692Z,1.00
2022-10-14T22:28:42.645Z,1.00
2022-10-14T22:31:15.604Z,1.00
2022-10-14T22:33:43.198Z,1.00
2022-10-14T22:36:20.875Z,1.00
2022-10-14T22:38:52.330Z,1.00
2022-10-14T22:41:19.408Z,1.00
2022-10-14T22:43:48.138Z,1.00
2022-10-14T22:46:16.910Z,1.00
2022-10-14T22:48:43.745Z,1.00
2022-10-14T22:51:12.553Z,1.00
2022-10-14T22:53:41.326Z,1.00
2022-10-14T22:56:10.628Z,1.00
2022-10-14T22:58:37.455Z,1.00
2022-10-14T23:01:16.017Z,1.00
2022-10-14T23:03:43.879Z,1.00
2022-10-14T23:06:13.105Z,1.00
2022-10-14T23:08:40.830Z,1.00
2022-10-14T23:11:08.653Z,1.00
2022-10-14T23:13:35.426Z,1.00
2022-10-14T23:16:04.640Z,1.00
2022-10-14T23:18:34.962Z,1.00
2022-10-14T23:21:12.797Z,1.00
2022-10-14T23:23:40.271Z,1.00
2022-10-14T23:26:10.586Z,1.00
2022-10-14T23:28:38.124Z,1.00
2022-10-14T23:31:13.734Z,1.00
2022-10-14T23:33:40.901Z,1.00
2022-10-14T23:36:10.514Z,1.00
2022-10-14T23:38:38.059Z,1.00
2022-10-14T23:41:05.744Z,1.00
2022-10-14T23:43:33.137Z,1.00
2022-10-14T23:46:00.019Z,1.00
2022-10-14T23:48:27.354Z,1.00
2022-10-14T23:50:54.576Z,1.00
2022-10-14T23:53:21.535Z,1.00
2022-10-14T23:55:48.689Z,1.00
2022-10-14T23:58:15.566Z,1.00
